createdAt,value
2018-07-08T00:00:06.451Z,98405.78
2018-07-08T00:02:34.970Z,98428.10
2018-07-08T00:05:03.522Z,98426.07
2018-07-08T00:07:32.140Z,98382.44
2018-07-08T00:10:00.648Z,98454.48
2018-07-08T00:12:29.182Z,98406.80
2018-07-08T00:14:57.673Z,98429.12
2018-07-08T00:17:26.208Z,98468.70
2018-07-08T00:19:54.920Z,98436.22
2018-07-08T00:22:23.459Z,98407.80
2018-07-08T00:24:51.917Z,98382.44
2018-07-08T00:27:20.610Z,98381.42
2018-07-08T00:29:49.290Z,98386.49
2018-07-08T00:32:17.874Z,98399.69
2018-07-08T00:34:46.474Z,98391.57
2018-07-08T00:37:15.024Z,98386.49
2018-07-08T00:39:43.560Z,98434.19
2018-07-08T00:42:12.521Z,98396.64
2018-07-08T00:44:41.028Z,98422.02
2018-07-08T00:47:09.511Z,98432.16
2018-07-08T00:49:38.401Z,98437.23
2018-07-08T00:52:07.121Z,98451.45
2018-07-08T00:54:35.624Z,98426.07
2018-07-08T00:57:04.176Z,98435.20
2018-07-08T00:59:32.886Z,98421.00
2018-07-08T01:02:01.553Z,98396.64
2018-07-08T01:04:30.129Z,98403.75
2018-07-08T01:06:58.662Z,98401.72
2018-07-08T01:09:27.133Z,98375.33
2018-07-08T01:11:55.693Z,98432.16
2018-07-08T01:14:24.178Z,98410.85
2018-07-08T01:16:52.675Z,98415.92
2018-07-08T01:19:21.224Z,98438.25
2018-07-08T01:21:49.956Z,98443.33
2018-07-08T01:24:18.445Z,98399.69
2018-07-08T01:26:46.967Z,98421.00
2018-07-08T01:29:15.689Z,98419.98
2018-07-08T01:31:44.327Z,98476.81
2018-07-08T01:34:12.816Z,98461.59
2018-07-08T01:36:41.305Z,98439.27
2018-07-08T01:39:10.013Z,98440.28
2018-07-08T01:41:38.693Z,98436.22
2018-07-08T01:44:07.158Z,98465.66
2018-07-08T01:46:35.672Z,98476.81
2018-07-08T01:49:04.213Z,98444.34
2018-07-08T01:51:32.759Z,98444.34
2018-07-08T01:54:01.437Z,98456.52
2018-07-08T01:56:29.953Z,98475.80
2018-07-08T01:58:58.809Z,98469.71
2018-07-08T02:01:27.324Z,98484.94
2018-07-08T02:03:55.846Z,98501.17
2018-07-08T02:06:24.630Z,98537.70
2018-07-08T02:08:53.129Z,98535.67
2018-07-08T02:11:21.661Z,98489.00
2018-07-08T02:13:50.227Z,98503.20
2018-07-08T02:16:18.884Z,98529.59
2018-07-08T02:18:47.430Z,98558.00
2018-07-08T02:21:16.242Z,98517.41
2018-07-08T02:23:45.406Z,98509.29
2018-07-08T02:26:13.875Z,98515.37
2018-07-08T02:28:42.428Z,98537.70
2018-07-08T02:31:10.964Z,98524.52
2018-07-08T02:33:39.644Z,98541.77
2018-07-08T02:36:08.176Z,98507.27
2018-07-08T02:38:36.733Z,98552.93
2018-07-08T02:41:05.240Z,98545.83
2018-07-08T02:43:33.718Z,98521.47
2018-07-08T02:46:02.474Z,98501.17
2018-07-08T02:48:31.155Z,98505.23
2018-07-08T02:50:59.674Z,98511.32
2018-07-08T02:53:28.141Z,98508.27
2018-07-08T02:55:56.672Z,98509.29
2018-07-08T02:58:25.155Z,98519.44
2018-07-08T03:00:53.656Z,98548.88
2018-07-08T03:03:22.136Z,98592.51
2018-07-08T03:05:50.608Z,98580.33
2018-07-08T03:08:19.125Z,98578.30
2018-07-08T03:10:47.639Z,98598.59
2018-07-08T03:13:16.292Z,98653.41
2018-07-08T03:15:44.892Z,98652.39
2018-07-08T03:18:13.839Z,98577.28
2018-07-08T03:20:42.363Z,98599.61
2018-07-08T03:23:10.834Z,98654.42
2018-07-08T03:25:39.316Z,98664.56
2018-07-08T03:28:07.893Z,98628.03
2018-07-08T03:30:36.377Z,98649.34
2018-07-08T03:33:05.206Z,98646.30
2018-07-08T03:35:33.689Z,98615.85
2018-07-08T03:38:02.375Z,98653.41
2018-07-08T03:40:30.996Z,98673.70
2018-07-08T03:42:59.497Z,98639.19
2018-07-08T03:45:28.010Z,98684.86
2018-07-08T03:47:56.506Z,98649.34
2018-07-08T03:50:24.990Z,98691.97
2018-07-08T03:52:53.475Z,98638.18
2018-07-08T03:55:22.010Z,98644.27
2018-07-08T03:57:50.520Z,98618.90
2018-07-08T04:00:19.002Z,98624.98
2018-07-08T04:02:47.505Z,98590.48
2018-07-08T04:05:16.031Z,98591.50
2018-07-08T04:07:44.857Z,98614.84
2018-07-08T04:10:13.349Z,98605.70
2018-07-08T04:12:43.538Z,98528.57
2018-07-08T04:15:12.214Z,98474.78
2018-07-08T04:17:40.669Z,98467.68
2018-07-08T04:20:09.171Z,98452.45
2018-07-08T04:22:37.786Z,98399.69
2018-07-08T04:25:06.288Z,98494.06
2018-07-08T04:27:34.765Z,98432.16
2018-07-08T04:30:03.350Z,98400.70
2018-07-08T04:32:31.841Z,98371.27
2018-07-08T04:35:00.344Z,98332.70
2018-07-08T04:37:28.792Z,98304.30
2018-07-08T04:39:57.436Z,98227.17
2018-07-08T04:42:25.921Z,98180.49
2018-07-08T04:44:54.384Z,98168.31
2018-07-08T04:47:22.920Z,98174.41
2018-07-08T04:49:51.392Z,98182.52
2018-07-08T04:52:19.881Z,98180.49
2018-07-08T04:54:48.381Z,98102.36
2018-07-08T04:57:16.922Z,98137.88
2018-07-08T04:59:45.796Z,98135.84
2018-07-08T05:02:14.330Z,98096.27
2018-07-08T05:04:42.901Z,98069.89
2018-07-08T05:07:11.585Z,97947.11
2018-07-08T05:09:40.364Z,97736.05
2018-07-08T05:12:08.836Z,97631.55
2018-07-08T05:14:37.312Z,97544.30
2018-07-08T05:17:05.879Z,97507.77
2018-07-08T05:19:34.437Z,97411.39
2018-07-08T05:22:02.905Z,97415.45
2018-07-08T05:24:31.382Z,97428.64
2018-07-08T05:27:00.266Z,97426.61
2018-07-08T05:29:28.755Z,97311.97
2018-07-08T05:31:57.297Z,97516.91
2018-07-08T05:34:25.773Z,97311.97
2018-07-08T05:36:54.457Z,97216.60
2018-07-08T05:39:22.916Z,97295.73
2018-07-08T05:41:51.447Z,97251.09
2018-07-08T05:44:20.036Z,97246.02
2018-07-08T05:46:48.733Z,97139.50
2018-07-08T05:49:17.240Z,97145.59
2018-07-08T05:51:45.876Z,97237.91
2018-07-08T05:54:14.758Z,96977.20
2018-07-08T05:56:43.323Z,97031.97
2018-07-08T05:59:12.247Z,97073.56
2018-07-08T06:01:40.992Z,97027.92
2018-07-08T06:04:09.513Z,96927.48
2018-07-08T06:06:38.021Z,96918.36
2018-07-08T06:09:07.108Z,96777.36
2018-07-08T06:11:35.666Z,97056.32
2018-07-08T06:14:04.647Z,96990.38
2018-07-08T06:16:33.151Z,97079.66
2018-07-08T06:19:01.658Z,96975.16
2018-07-08T06:21:30.269Z,97101.97
2018-07-08T06:23:58.738Z,96928.50
2018-07-08T06:26:27.326Z,97099.94
2018-07-08T06:28:55.964Z,97028.93
2018-07-08T06:31:24.421Z,96916.33
2018-07-08T06:33:52.909Z,96696.22
2018-07-08T06:36:21.412Z,96824.02
2018-07-08T06:38:49.991Z,96640.42
2018-07-08T06:41:18.452Z,96833.16
2018-07-08T06:43:46.974Z,96759.11
2018-07-08T06:46:15.577Z,97128.34
2018-07-08T06:48:44.083Z,97281.53
2018-07-08T06:51:12.644Z,97238.92
2018-07-08T06:53:41.213Z,97231.82
2018-07-08T06:56:09.793Z,96871.70
2018-07-08T06:58:38.310Z,96683.03
2018-07-08T07:01:07.499Z,96934.59
2018-07-08T07:03:36.017Z,96950.82
2018-07-08T07:06:04.505Z,97032.98
2018-07-08T07:08:33.387Z,97113.13
2018-07-08T07:11:01.936Z,97102.98
2018-07-08T07:13:30.385Z,97191.23
2018-07-08T07:15:59.401Z,97151.68
2018-07-08T07:18:27.873Z,97152.69
2018-07-08T07:20:56.357Z,97153.70
2018-07-08T07:23:25.693Z,97292.69
2018-07-08T07:25:54.381Z,97267.33
2018-07-08T07:28:22.885Z,97349.50
2018-07-08T07:30:51.405Z,97363.70
2018-07-08T07:33:19.913Z,97406.31
2018-07-08T07:35:48.401Z,97336.31
2018-07-08T07:38:17.021Z,97428.64
2018-07-08T07:40:45.558Z,97418.49
2018-07-08T07:43:14.025Z,97362.69
2018-07-08T07:45:42.534Z,97392.11
2018-07-08T07:48:11.036Z,97354.58
2018-07-08T07:50:39.504Z,97286.60
2018-07-08T07:53:07.968Z,97302.84
2018-07-08T07:55:36.544Z,97343.41
2018-07-08T07:58:05.035Z,97299.80
2018-07-08T08:00:33.497Z,97297.77
2018-07-08T08:03:01.985Z,97224.72
2018-07-08T08:05:30.501Z,97260.23
2018-07-08T08:07:59.005Z,97258.20
2018-07-08T08:10:27.509Z,97250.08
2018-07-08T08:12:55.972Z,97225.73
2018-07-08T08:15:24.478Z,97179.07
2018-07-08T08:17:52.984Z,97259.21
2018-07-08T08:20:21.499Z,97261.23
2018-07-08T08:22:50.584Z,97206.46
2018-07-08T08:25:19.062Z,97170.95
2018-07-08T08:27:47.627Z,97237.91
2018-07-08T08:30:16.277Z,97176.02
2018-07-08T08:32:44.941Z,97175.01
2018-07-08T08:35:17.236Z,97093.86
2018-07-08T08:37:51.762Z,97051.25
2018-07-08T08:40:21.604Z,96979.22
2018-07-08T08:42:50.801Z,96970.09
2018-07-08T08:45:20.333Z,96978.20
2018-07-08T08:47:48.794Z,96985.31
2018-07-08T08:50:17.910Z,96987.34
2018-07-08T08:52:46.469Z,96960.97
2018-07-08T08:55:15.246Z,96957.92
2018-07-08T08:57:43.767Z,96916.33
2018-07-08T09:00:15.544Z,96742.88
2018-07-08T09:02:44.057Z,96771.28
2018-07-08T09:05:12.554Z,96754.03
2018-07-08T09:07:41.213Z,96701.29
2018-07-08T09:10:09.684Z,96776.34
2018-07-08T09:12:38.148Z,96824.02
2018-07-08T09:15:06.799Z,96773.30
2018-07-08T09:17:35.306Z,96820.98
2018-07-08T09:20:03.884Z,96996.47
2018-07-08T09:22:32.378Z,96902.12
2018-07-08T09:25:00.903Z,96912.27
2018-07-08T09:27:29.415Z,96826.05
2018-07-08T09:29:57.917Z,96845.33
2018-07-08T09:32:26.385Z,96861.55
2018-07-08T09:34:54.937Z,96715.48
2018-07-08T09:37:23.463Z,96754.03
2018-07-08T09:39:51.944Z,96785.48
2018-07-08T09:42:20.486Z,96662.74
2018-07-08T09:44:48.961Z,96727.66
2018-07-08T09:47:17.517Z,96719.55
2018-07-08T09:49:46.305Z,96590.73
2018-07-08T09:52:14.871Z,96545.09
2018-07-08T09:54:43.387Z,96386.86
2018-07-08T09:57:11.850Z,96525.81
2018-07-08T09:59:40.360Z,96573.48
2018-07-08T10:02:08.822Z,96625.21
2018-07-08T10:04:37.410Z,96515.67
2018-07-08T10:07:05.953Z,96521.75
2018-07-08T10:09:34.499Z,96599.86
2018-07-08T10:12:03.044Z,96546.09
2018-07-08T10:14:31.518Z,96553.20
2018-07-08T10:16:59.999Z,96644.48
2018-07-08T10:19:28.539Z,96570.44
2018-07-08T10:21:57.113Z,96550.16
2018-07-08T10:24:25.570Z,96395.98
2018-07-08T10:27:45.698Z,96342.23
2018-07-08T10:30:14.189Z,96322.97
2018-07-08T10:32:42.656Z,96373.67
2018-07-08T10:35:21.040Z,96242.84
2018-07-08T10:37:49.701Z,96283.41
2018-07-08T10:40:18.291Z,96401.06
2018-07-08T10:42:46.818Z,96393.96
2018-07-08T10:45:15.380Z,96350.34
2018-07-08T10:47:43.910Z,96194.16
2018-07-08T10:50:12.417Z,96305.72
2018-07-08T10:52:40.888Z,96386.86
2018-07-08T10:55:09.681Z,96391.93
2018-07-08T10:57:38.151Z,96347.30
2018-07-08T11:00:06.928Z,96443.66
2018-07-08T11:02:35.638Z,96292.54
2018-07-08T11:05:04.592Z,96351.36
2018-07-08T11:07:33.061Z,96385.84
2018-07-08T11:10:01.555Z,96373.67
2018-07-08T11:12:30.081Z,96193.15
2018-07-08T11:14:58.545Z,96248.92
2018-07-08T11:17:27.111Z,96363.53
2018-07-08T11:19:55.613Z,96347.30
2018-07-08T11:22:24.118Z,96229.66
2018-07-08T11:24:52.622Z,96380.77
2018-07-08T11:27:21.205Z,96166.78
2018-07-08T11:29:49.933Z,96045.08
2018-07-08T11:32:18.492Z,96242.84
2018-07-08T11:34:47.621Z,96338.17
2018-07-08T11:37:17.035Z,96188.08
2018-07-08T11:39:45.577Z,96003.50
2018-07-08T11:42:14.119Z,95994.38
2018-07-08T11:44:42.609Z,96090.72
2018-07-08T11:47:11.132Z,96235.74
2018-07-08T11:49:39.599Z,96188.08
2018-07-08T11:52:08.151Z,96144.47
2018-07-08T11:54:36.665Z,96082.60
2018-07-08T11:57:05.373Z,95909.19
2018-07-08T11:59:33.846Z,95912.23
2018-07-08T12:02:02.344Z,95886.88
2018-07-08T12:04:30.913Z,95933.52
2018-07-08T12:06:59.398Z,96004.52
2018-07-08T12:09:27.912Z,96033.92
2018-07-08T12:11:56.459Z,96067.39
2018-07-08T12:14:25.056Z,96074.48
2018-07-08T12:16:53.655Z,95982.20
2018-07-08T12:19:22.161Z,96013.64
2018-07-08T12:21:50.674Z,96067.39
2018-07-08T12:24:19.166Z,96188.08
2018-07-08T12:26:47.840Z,96228.64
2018-07-08T12:29:16.318Z,96193.15
2018-07-08T12:31:44.877Z,96184.02
2018-07-08T12:34:13.349Z,96048.13
2018-07-08T12:36:41.837Z,95994.38
2018-07-08T12:39:12.190Z,95931.50
2018-07-08T12:41:41.294Z,95805.75
2018-07-08T12:44:10.042Z,95787.50
2018-07-08T12:46:39.032Z,95969.02
2018-07-08T12:49:07.903Z,95755.05
2018-07-08T12:51:36.386Z,95707.39
2018-07-08T12:54:05.065Z,95792.56
2018-07-08T12:56:33.537Z,95811.84
2018-07-08T12:59:02.242Z,95970.03
2018-07-08T13:01:30.718Z,96079.56
2018-07-08T13:03:59.289Z,96016.69
2018-07-08T13:06:27.992Z,96056.23
2018-07-08T13:08:56.565Z,95990.31
2018-07-08T13:11:25.188Z,95877.75
2018-07-08T13:13:53.769Z,96050.15
2018-07-08T13:16:22.273Z,96126.21
2018-07-08T13:18:50.760Z,96143.45
2018-07-08T13:21:19.309Z,95940.63
2018-07-08T13:23:47.892Z,95818.94
2018-07-08T13:26:16.453Z,95813.86
2018-07-08T13:28:44.970Z,96004.52
2018-07-08T13:31:13.517Z,96089.70
2018-07-08T13:33:42.038Z,96151.56
2018-07-08T13:36:10.575Z,96122.16
2018-07-08T13:38:39.112Z,96120.13
2018-07-08T13:41:07.685Z,96076.52
2018-07-08T13:43:36.290Z,96085.64
2018-07-08T13:46:04.870Z,95987.27
2018-07-08T13:48:33.389Z,95935.55
2018-07-08T13:51:01.863Z,95971.05
2018-07-08T13:53:30.855Z,95977.13
2018-07-08T13:55:59.341Z,96060.29
2018-07-08T13:58:27.869Z,96148.52
2018-07-08T14:00:56.418Z,96136.36
2018-07-08T14:03:24.909Z,96124.19
2018-07-08T14:05:53.743Z,96155.62
2018-07-08T14:08:22.284Z,96125.20
2018-07-08T14:10:50.967Z,96077.53
2018-07-08T14:13:19.573Z,96055.22
2018-07-08T14:15:48.097Z,96007.55
2018-07-08T14:18:16.623Z,95934.54
2018-07-08T14:20:45.213Z,95919.33
2018-07-08T14:23:13.686Z,96040.01
2018-07-08T14:25:42.481Z,95975.10
2018-07-08T14:28:11.029Z,95982.20
2018-07-08T14:30:39.550Z,96002.48
2018-07-08T14:33:08.133Z,96086.66
2018-07-08T14:35:36.880Z,96059.28
2018-07-08T14:38:05.783Z,95947.72
2018-07-08T14:40:34.268Z,95952.80
2018-07-08T14:43:02.798Z,95925.41
2018-07-08T14:45:31.318Z,95893.97
2018-07-08T14:47:59.817Z,95942.66
2018-07-08T14:50:28.320Z,96008.57
2018-07-08T14:52:56.913Z,96076.52
2018-07-08T14:55:25.421Z,96035.95
2018-07-08T14:57:53.909Z,95915.27
2018-07-08T15:00:22.407Z,95964.96
2018-07-08T15:02:50.927Z,96012.63
2018-07-08T15:05:19.860Z,96032.91
2018-07-08T15:07:48.410Z,96061.30
2018-07-08T15:10:16.931Z,96087.67
2018-07-08T15:12:50.131Z,96112.02
2018-07-08T15:15:18.708Z,96031.89
2018-07-08T15:17:47.201Z,95993.36
2018-07-08T15:20:15.749Z,95995.39
2018-07-08T15:22:44.232Z,95949.75
2018-07-08T15:25:12.721Z,96010.59
2018-07-08T15:27:41.202Z,96069.42
2018-07-08T15:30:09.677Z,96066.38
2018-07-08T15:32:38.350Z,96015.67
2018-07-08T15:35:06.890Z,96057.25
2018-07-08T15:37:35.390Z,96040.01
2018-07-08T15:40:03.948Z,95991.33
2018-07-08T15:42:32.430Z,95973.08
2018-07-08T15:45:00.954Z,95944.68
2018-07-08T15:47:29.554Z,95990.31
2018-07-08T15:49:58.061Z,96102.88
2018-07-08T15:52:26.566Z,96093.76
2018-07-08T15:54:55.466Z,96153.59
2018-07-08T15:57:24.078Z,96116.07
2018-07-08T15:59:52.580Z,96030.87
2018-07-08T16:02:21.094Z,96000.45
2018-07-08T16:04:49.599Z,96018.71
2018-07-08T16:07:18.353Z,95992.34
2018-07-08T16:09:46.885Z,96108.97
2018-07-08T16:12:15.373Z,96088.69
2018-07-08T16:14:43.886Z,96052.18
2018-07-08T16:17:12.350Z,95992.34
2018-07-08T16:19:40.850Z,96017.70
2018-07-08T16:22:09.353Z,96077.53
2018-07-08T16:24:37.873Z,96075.50
2018-07-08T16:27:06.811Z,96065.36
2018-07-08T16:29:35.458Z,96034.94
2018-07-08T16:32:03.968Z,96061.30
2018-07-08T16:34:32.574Z,96129.25
2018-07-08T16:37:01.083Z,96129.25
2018-07-08T16:39:29.674Z,96107.95
2018-07-08T16:41:58.326Z,96065.36
2018-07-08T16:44:26.797Z,96049.13
2018-07-08T16:46:55.253Z,96016.69
2018-07-08T16:49:23.861Z,96131.28
2018-07-08T16:51:52.397Z,96061.30
2018-07-08T16:54:20.906Z,96043.05
2018-07-08T16:56:50.136Z,96033.92
2018-07-08T16:59:18.699Z,96065.36
2018-07-08T17:01:47.261Z,96108.97
2018-07-08T17:04:15.791Z,96162.72
2018-07-08T17:06:44.353Z,96181.99
2018-07-08T17:09:12.822Z,96203.28
2018-07-08T17:11:41.310Z,96180.98
2018-07-08T17:14:09.777Z,96185.03
2018-07-08T17:16:38.279Z,96222.56
2018-07-08T17:19:06.818Z,96224.59
2018-07-08T17:21:35.313Z,96268.20
2018-07-08T17:24:03.797Z,96235.74
2018-07-08T17:26:32.429Z,96288.48
2018-07-08T17:29:00.942Z,96279.35
2018-07-08T17:31:29.486Z,96243.86
2018-07-08T17:33:58.166Z,96248.92
2018-07-08T17:36:26.951Z,96309.78
2018-07-08T17:38:55.604Z,96287.47
2018-07-08T17:41:24.074Z,96351.36
2018-07-08T17:43:52.652Z,96311.80
2018-07-08T17:46:21.301Z,96287.47
2018-07-08T17:48:51.331Z,96300.65
2018-07-08T17:51:20.018Z,96328.03
2018-07-08T17:53:48.553Z,96362.52
2018-07-08T17:56:17.080Z,96271.23
2018-07-08T17:58:45.638Z,96214.44
2018-07-08T18:01:14.137Z,95975.10
2018-07-08T18:03:42.687Z,95869.64
2018-07-08T18:06:11.206Z,95868.63
2018-07-08T18:08:39.774Z,95691.16
2018-07-08T18:11:08.434Z,95801.70
2018-07-08T18:13:36.941Z,95755.05
2018-07-08T18:16:06.288Z,95628.30
2018-07-08T18:18:35.586Z,95686.09
2018-07-08T18:21:04.776Z,95695.22
2018-07-08T18:23:33.347Z,95765.19
2018-07-08T18:26:01.837Z,95966.99
2018-07-08T18:28:30.335Z,96157.65
2018-07-08T18:30:58.868Z,96326.00
2018-07-08T18:33:27.432Z,96298.63
2018-07-08T18:35:56.309Z,96372.66
2018-07-08T18:38:24.824Z,96373.67
2018-07-08T18:40:53.370Z,96432.50
2018-07-08T18:43:22.309Z,96547.11
2018-07-08T18:45:50.949Z,96553.20
2018-07-08T18:48:19.623Z,96587.69
2018-07-08T18:50:48.127Z,96566.38
2018-07-08T18:53:17.355Z,96644.48
2018-07-08T18:55:45.837Z,96641.44
2018-07-08T18:58:14.340Z,96688.10
2018-07-08T19:00:43.302Z,96666.80
2018-07-08T19:03:12.549Z,96597.83
2018-07-08T19:05:41.154Z,96617.10
2018-07-08T19:08:09.829Z,96696.22
2018-07-08T19:10:38.306Z,96677.95
2018-07-08T19:13:07.084Z,96722.59
2018-07-08T19:15:35.569Z,96717.52
2018-07-08T19:18:05.043Z,96760.12
2018-07-08T19:20:33.513Z,96765.19
2018-07-08T19:23:02.164Z,96807.80
2018-07-08T19:25:30.781Z,96844.31
2018-07-08T19:27:59.337Z,96828.08
2018-07-08T19:30:27.856Z,96791.56
2018-07-08T19:32:56.369Z,96708.39
2018-07-08T19:35:24.848Z,96817.94
2018-07-08T19:37:53.441Z,96938.65
2018-07-08T19:40:22.012Z,96953.86
2018-07-08T19:42:50.480Z,96982.27
2018-07-08T19:45:19.019Z,97029.95
2018-07-08T19:47:47.608Z,97061.39
2018-07-08T19:50:16.139Z,97060.38
2018-07-08T19:52:44.650Z,97100.95
2018-07-08T19:55:13.165Z,97148.63
2018-07-08T19:57:41.649Z,97139.50
2018-07-08T20:00:10.124Z,97161.82
2018-07-08T20:02:38.640Z,97198.34
2018-07-08T20:05:07.148Z,97204.43
2018-07-08T20:07:35.680Z,97181.09
2018-07-08T20:10:04.352Z,97220.66
2018-07-08T20:12:32.825Z,97268.34
2018-07-08T20:15:02.218Z,97283.56
2018-07-08T20:17:30.742Z,97285.59
2018-07-08T20:19:59.314Z,97289.64
2018-07-08T20:22:27.785Z,97343.41
2018-07-08T20:24:56.354Z,97317.03
2018-07-08T20:27:24.879Z,97344.43
2018-07-08T20:29:53.450Z,97382.98
2018-07-08T20:32:22.055Z,97394.14
2018-07-08T20:34:50.697Z,97357.62
2018-07-08T20:37:19.260Z,97412.41
2018-07-08T20:39:48.144Z,97447.91
2018-07-08T20:42:16.636Z,97475.30
2018-07-08T20:44:45.271Z,97522.98
2018-07-08T20:47:13.780Z,97495.59
2018-07-08T20:49:42.264Z,97556.47
2018-07-08T20:52:10.750Z,97512.84
2018-07-08T20:54:39.277Z,97568.64
2018-07-08T20:57:07.770Z,97538.20
2018-07-08T20:59:36.301Z,97558.50
2018-07-08T21:02:04.897Z,97607.20
2018-07-08T21:04:33.546Z,97621.41
2018-07-08T21:07:02.189Z,97606.19
2018-07-08T21:09:30.721Z,97619.38
2018-07-08T21:11:59.180Z,97656.92
2018-07-08T21:14:27.881Z,97617.34
2018-07-08T21:16:56.398Z,97698.52
2018-07-08T21:19:24.906Z,97641.70
2018-07-08T21:21:53.471Z,97687.36
2018-07-08T21:24:21.977Z,97687.36
2018-07-08T21:26:50.486Z,97700.55
2018-07-08T21:29:19.030Z,97704.60
2018-07-08T21:31:47.506Z,97720.84
2018-07-08T21:34:16.026Z,97707.64
2018-07-08T21:36:44.571Z,97721.85
2018-07-08T21:39:13.255Z,97740.11
2018-07-08T21:41:42.440Z,97700.55
2018-07-08T21:44:10.914Z,97744.17
2018-07-08T21:46:39.748Z,97795.92
2018-07-08T21:49:08.241Z,97765.48
2018-07-08T21:51:36.737Z,97763.45
2018-07-08T21:54:05.442Z,97754.31
2018-07-08T21:56:33.931Z,97782.73
2018-07-08T21:59:02.438Z,97782.73
2018-07-08T22:01:36.913Z,97803.02
2018-07-08T22:04:06.170Z,97828.39
2018-07-08T22:06:34.629Z,97805.05
2018-07-08T22:09:03.293Z,97868.98
2018-07-08T22:11:31.797Z,97874.05
2018-07-08T22:14:00.288Z,97899.41
2018-07-08T22:16:28.939Z,97896.38
2018-07-08T22:18:57.501Z,97900.43
2018-07-08T22:21:25.965Z,97890.28
2018-07-08T22:23:54.452Z,97912.61
2018-07-08T22:26:22.961Z,97892.31
2018-07-08T22:28:51.786Z,97905.50
2018-07-08T22:31:20.458Z,97888.25
2018-07-08T22:33:48.978Z,97917.68
2018-07-08T22:36:17.475Z,97954.21
2018-07-08T22:38:46.077Z,97943.05
2018-07-08T22:41:14.566Z,97962.33
2018-07-08T22:43:43.103Z,97970.45
2018-07-08T22:46:11.828Z,97959.28
2018-07-08T22:48:40.310Z,97951.16
2018-07-08T22:51:08.761Z,97945.08
2018-07-08T22:53:37.833Z,97989.72
2018-07-08T22:56:06.354Z,97960.30
2018-07-08T22:58:34.866Z,97995.81
2018-07-08T23:01:14.449Z,97983.64
2018-07-08T23:03:45.122Z,97990.73
2018-07-08T23:06:13.608Z,97992.77
2018-07-08T23:08:42.104Z,98031.33
2018-07-08T23:11:11.008Z,98037.41
2018-07-08T23:13:39.573Z,98056.70
2018-07-08T23:16:08.352Z,98043.50
2018-07-08T23:18:36.893Z,98116.56
2018-07-08T23:21:05.666Z,98134.83
2018-07-08T23:23:34.248Z,98097.28
2018-07-08T23:26:02.853Z,98125.70
2018-07-08T23:28:32.378Z,98112.50
2018-07-08T23:31:00.922Z,98149.03
2018-07-08T23:33:29.801Z,98167.30
2018-07-08T23:35:58.295Z,98155.13
2018-07-08T23:38:27.024Z,98153.09
2018-07-08T23:40:55.554Z,98174.41
2018-07-08T23:43:24.153Z,98187.59
2018-07-08T23:45:52.740Z,98200.78
2018-07-08T23:48:21.235Z,98230.22
2018-07-08T23:50:49.880Z,98188.61
2018-07-08T23:53:18.442Z,98165.27
2018-07-08T23:55:47.327Z,98228.19
2018-07-08T23:58:15.786Z,98171.36
